sensor_id;sensor_type;location;lat;lon;timestamp;P1;durP1;ratioP1;P2;durP2;ratioP2
18114;SDS011;9184;54.390;18.620;2022-09-29T00:00:16;23.40;;;19.42;;
18114;SDS011;9184;54.390;18.620;2022-09-29T00:00:47;29.08;;;18.67;;
18114;SDS011;9184;54.390;18.620;2022-09-29T00:01:18;23.30;;;18.17;;
18114;SDS011;9184;54.390;18.620;2022-09-29T00:01:49;28.02;;;18.38;;
18114;SDS011;9184;54.390;18.620;2022-09-29T00:02:20;24.27;;;18.60;;
18114;SDS011;9184;54.390;18.620;2022-09-29T00:02:51;28.55;;;19.90;;
18114;SDS011;9184;54.390;18.620;2022-09-29T00:03:22;26.50;;;19.23;;
18114;SDS011;9184;54.390;18.620;2022-09-29T00:03:52;27.23;;;18.77;;
18114;SDS011;9184;54.390;18.620;2022-09-29T00:04:24;25.73;;;20.38;;
18114;SDS011;9184;54.390;18.620;2022-09-29T00:04:54;26.35;;;18.70;;
18114;SDS011;9184;54.390;18.620;2022-09-29T00:05:24;28.33;;;17.73;;
18114;SDS011;9184;54.390;18.620;2022-09-29T00:05:55;26.60;;;18.40;;
18114;SDS011;9184;54.390;18.620;2022-09-29T00:06:26;21.02;;;16.92;;
18114;SDS011;9184;54.390;18.620;2022-09-29T00:06:57;25.23;;;18.23;;
18114;SDS011;9184;54.390;18.620;2022-09-29T00:07:27;29.52;;;19.27;;
18114;SDS011;9184;54.390;18.620;2022-09-29T00:07:58;26.30;;;18.45;;
18114;SDS011;9184;54.390;18.620;2022-09-29T00:08:29;24.10;;;19.17;;
18114;SDS011;9184;54.390;18.620;2022-09-29T00:09:00;20.35;;;16.48;;
18114;SDS011;9184;54.390;18.620;2022-09-29T00:09:30;22.27;;;16.77;;
18114;SDS011;9184;54.390;18.620;2022-09-29T00:10:02;19.23;;;17.07;;
18114;SDS011;9184;54.390;18.620;2022-09-29T00:10:33;19.50;;;16.08;;
18114;SDS011;9184;54.390;18.620;2022-09-29T00:11:05;22.17;;;17.38;;
18114;SDS011;9184;54.390;18.620;2022-09-29T00:11:38;21.27;;;16.30;;
18114;SDS011;9184;54.390;18.620;2022-09-29T00:12:09;19.13;;;15.03;;
18114;SDS011;9184;54.390;18.620;2022-09-29T00:12:39;20.70;;;17.02;;
18114;SDS011;9184;54.390;18.620;2022-09-29T00:13:11;19.30;;;16.20;;
18114;SDS011;9184;54.390;18.620;2022-09-29T00:13:41;20.45;;;15.60;;
18114;SDS011;9184;54.390;18.620;2022-09-29T00:14:12;21.70;;;15.48;;
18114;SDS011;9184;54.390;18.620;2022-09-29T00:14:43;21.38;;;15.05;;
18114;SDS011;9184;54.390;18.620;2022-09-29T00:15:14;18.83;;;15.27;;
18114;SDS011;9184;54.390;18.620;2022-09-29T00:15:53;19.57;;;15.30;;
18114;SDS011;9184;54.390;18.620;2022-09-29T00:16:25;17.70;;;14.45;;
18114;SDS011;9184;54.390;18.620;2022-09-29T00:16:55;16.83;;;14.52;;
18114;SDS011;9184;54.390;18.620;2022-09-29T00:17:26;18.50;;;14.13;;
18114;SDS011;9184;54.390;18.620;2022-09-29T00:17:57;19.13;;;14.88;;
18114;SDS011;9184;54.390;18.620;2022-09-29T00:18:28;18.90;;;14.38;;
18114;SDS011;9184;54.390;18.620;2022-09-29T00:18:59;21.42;;;14.25;;
18114;SDS011;9184;54.390;18.620;2022-09-29T00:19:30;18.15;;;14.63;;
18114;SDS011;9184;54.390;18.620;2022-09-29T00:20:02;17.40;;;14.43;;
18114;SDS011;9184;54.390;18.620;2022-09-29T00:20:33;16.92;;;14.40;;
18114;SDS011;9184;54.390;18.620;2022-09-29T00:21:05;20.75;;;13.80;;
18114;SDS011;9184;54.390;18.620;2022-09-29T00:21:37;16.33;;;14.13;;
18114;SDS011;9184;54.390;18.620;2022-09-29T00:22:07;22.08;;;14.20;;
18114;SDS011;9184;54.390;18.620;2022-09-29T00:22:38;20.38;;;14.73;;
18114;SDS011;9184;54.390;18.620;2022-09-29T00:23:08;19.05;;;15.80;;
18114;SDS011;9184;54.390;18.620;2022-09-29T00:23:39;19.13;;;15.07;;
18114;SDS011;9184;54.390;18.620;2022-09-29T00:24:10;21.38;;;15.57;;
18114;SDS011;9184;54.390;18.620;2022-09-29T00:24:41;17.65;;;14.68;;
18114;SDS011;9184;54.390;18.620;2022-09-29T00:25:12;20.90;;;15.73;;
18114;SDS011;9184;54.390;18.620;2022-09-29T00:25:43;19.75;;;14.75;;
18114;SDS011;9184;54.390;18.620;2022-09-29T00:26:14;18.13;;;15.57;;
18114;SDS011;9184;54.390;18.620;2022-09-29T00:26:47;19.50;;;14.82;;
18114;SDS011;9184;54.390;18.620;2022-09-29T00:27:17;21.42;;;15.15;;
18114;SDS011;9184;54.390;18.620;2022-09-29T00:27:48;20.85;;;15.07;;
18114;SDS011;9184;54.390;18.620;2022-09-29T00:28:19;16.33;;;13.77;;
18114;SDS011;9184;54.390;18.620;2022-09-29T00:28:50;18.80;;;14.93;;
18114;SDS011;9184;54.390;18.620;2022-09-29T00:29:22;17.52;;;14.15;;
18114;SDS011;9184;54.390;18.620;2022-09-29T00:29:54;18.52;;;15.15;;
18114;SDS011;9184;54.390;18.620;2022-09-29T00:30:24;17.30;;;13.63;;
18114;SDS011;9184;54.390;18.620;2022-09-29T00:30:56;20.23;;;13.52;;
18114;SDS011;9184;54.390;18.620;2022-09-29T00:31:27;16.02;;;13.68;;
18114;SDS011;9184;54.390;18.620;2022-09-29T00:32:00;19.98;;;14.30;;
18114;SDS011;9184;54.390;18.620;2022-09-29T00:32:30;15.18;;;13.50;;
18114;SDS011;9184;54.390;18.620;2022-09-29T00:33:01;15.07;;;12.70;;
18114;SDS011;9184;54.390;18.620;2022-09-29T00:33:33;19.40;;;14.38;;
18114;SDS011;9184;54.390;18.620;2022-09-29T00:34:03;15.07;;;13.25;;
18114;SDS011;9184;54.390;18.620;2022-09-29T00:34:35;16.50;;;12.88;;
18114;SDS011;9184;54.390;18.620;2022-09-29T00:35:06;17.17;;;13.85;;
18114;SDS011;9184;54.390;18.620;2022-09-29T00:35:37;15.65;;;13.82;;
18114;SDS011;9184;54.390;18.620;2022-09-29T00:36:09;14.82;;;12.85;;
18114;SDS011;9184;54.390;18.620;2022-09-29T00:36:41;15.13;;;13.27;;
18114;SDS011;9184;54.390;18.620;2022-09-29T00:37:11;16.92;;;12.55;;
18114;SDS011;9184;54.390;18.620;2022-09-29T00:37:43;18.38;;;13.90;;
18114;SDS011;9184;54.390;18.620;2022-09-29T00:38:14;14.70;;;12.63;;
18114;SDS011;9184;54.390;18.620;2022-09-29T00:38:45;14.63;;;12.63;;
18114;SDS011;9184;54.390;18.620;2022-09-29T00:39:16;16.38;;;12.63;;
18114;SDS011;9184;54.390;18.620;2022-09-29T00:39:47;13.05;;;11.52;;
18114;SDS011;9184;54.390;18.620;2022-09-29T00:40:18;15.30;;;12.82;;
18114;SDS011;9184;54.390;18.620;2022-09-29T00:40:48;15.73;;;12.63;;
18114;SDS011;9184;54.390;18.620;2022-09-29T00:41:21;16.15;;;12.18;;
18114;SDS011;9184;54.390;18.620;2022-09-29T00:41:54;18.00;;;12.23;;
18114;SDS011;9184;54.390;18.620;2022-09-29T00:42:26;13.75;;;12.27;;
18114;SDS011;9184;54.390;18.620;2022-09-29T00:42:57;16.83;;;11.88;;
18114;SDS011;9184;54.390;18.620;2022-09-29T00:43:52;14.70;;;11.93;;
18114;SDS011;9184;54.390;18.620;2022-09-29T00:45:15;14.48;;;11.93;;
18114;SDS011;9184;54.390;18.620;2022-09-29T00:45:46;16.48;;;12.05;;
18114;SDS011;9184;54.390;18.620;2022-09-29T00:46:17;14.57;;;12.25;;
18114;SDS011;9184;54.390;18.620;2022-09-29T00:46:51;14.70;;;11.52;;
18114;SDS011;9184;54.390;18.620;2022-09-29T00:47:24;15.13;;;11.63;;
18114;SDS011;9184;54.390;18.620;2022-09-29T00:47:59;12.70;;;11.00;;
18114;SDS011;9184;54.390;18.620;2022-09-29T00:48:33;14.00;;;11.65;;
18114;SDS011;9184;54.390;18.620;2022-09-29T00:49:05;14.60;;;11.95;;
18114;SDS011;9184;54.390;18.620;2022-09-29T00:49:37;13.13;;;11.60;;
18114;SDS011;9184;54.390;18.620;2022-09-29T00:50:11;14.45;;;11.10;;
18114;SDS011;9184;54.390;18.620;2022-09-29T00:50:44;18.63;;;11.80;;
18114;SDS011;9184;54.390;18.620;2022-09-29T00:51:17;14.18;;;12.05;;
18114;SDS011;9184;54.390;18.620;2022-09-29T00:51:50;14.65;;;11.98;;
18114;SDS011;9184;54.390;18.620;2022-09-29T00:52:24;14.05;;;11.75;;
18114;SDS011;9184;54.390;18.620;2022-09-29T00:52:55;13.85;;;11.50;;
18114;SDS011;9184;54.390;18.620;2022-09-29T00:53:28;18.77;;;11.25;;
18114;SDS011;9184;54.390;18.620;2022-09-29T00:53:58;12.77;;;11.13;;
18114;SDS011;9184;54.390;18.620;2022-09-29T00:54:30;14.10;;;10.85;;
18114;SDS011;9184;54.390;18.620;2022-09-29T00:55:03;14.77;;;12.07;;
18114;SDS011;9184;54.390;18.620;2022-09-29T00:55:37;14.10;;;10.90;;
18114;SDS011;9184;54.390;18.620;2022-09-29T00:56:11;13.40;;;11.50;;
18114;SDS011;9184;54.390;18.620;2022-09-29T00:56:43;13.82;;;11.25;;
18114;SDS011;9184;54.390;18.620;2022-09-29T00:57:17;13.85;;;10.13;;
18114;SDS011;9184;54.390;18.620;2022-09-29T00:57:49;14.25;;;11.18;;
18114;SDS011;9184;54.390;18.620;2022-09-29T00:58:21;15.18;;;11.35;;
18114;SDS011;9184;54.390;18.620;2022-09-29T00:58:56;13.68;;;10.95;;
18114;SDS011;9184;54.390;18.620;2022-09-29T00:59:30;14.43;;;11.00;;
18114;SDS011;9184;54.390;18.620;2022-09-29T01:00:03;13.38;;;11.30;;
18114;SDS011;9184;54.390;18.620;2022-09-29T01:00:36;15.98;;;11.82;;
18114;SDS011;9184;54.390;18.620;2022-09-29T01:01:06;13.95;;;11.73;;
18114;SDS011;9184;54.390;18.620;2022-09-29T01:01:37;12.10;;;10.90;;
18114;SDS011;9184;54.390;18.620;2022-09-29T01:02:08;14.40;;;11.75;;
18114;SDS011;9184;54.390;18.620;2022-09-29T01:02:39;13.43;;;11.40;;
18114;SDS011;9184;54.390;18.620;2022-09-29T01:03:12;12.68;;;11.35;;
18114;SDS011;9184;54.390;18.620;2022-09-29T01:03:45;12.90;;;11.15;;
18114;SDS011;9184;54.390;18.620;2022-09-29T01:04:17;16.90;;;11.82;;
18114;SDS011;9184;54.390;18.620;2022-09-29T01:04:48;14.55;;;11.73;;
18114;SDS011;9184;54.390;18.620;2022-09-29T01:05:22;13.68;;;11.68;;
18114;SDS011;9184;54.390;18.620;2022-09-29T01:05:55;14.93;;;11.38;;
18114;SDS011;9184;54.390;18.620;2022-09-29T01:06:27;17.20;;;11.88;;
18114;SDS011;9184;54.390;18.620;2022-09-29T01:07:00;15.98;;;11.80;;
18114;SDS011;9184;54.390;18.620;2022-09-29T01:07:31;13.75;;;10.52;;
18114;SDS011;9184;54.390;18.620;2022-09-29T01:08:05;15.73;;;10.80;;
18114;SDS011;9184;54.390;18.620;2022-09-29T01:08:40;14.23;;;11.20;;
18114;SDS011;9184;54.390;18.620;2022-09-29T01:09:13;14.05;;;10.50;;
18114;SDS011;9184;54.390;18.620;2022-09-29T01:09:44;13.48;;;11.45;;
18114;SDS011;9184;54.390;18.620;2022-09-29T01:10:15;15.57;;;11.02;;
18114;SDS011;9184;54.390;18.620;2022-09-29T01:10:47;14.90;;;11.55;;
18114;SDS011;9184;54.390;18.620;2022-09-29T01:11:19;14.80;;;11.38;;
18114;SDS011;9184;54.390;18.620;2022-09-29T01:11:50;12.10;;;10.65;;
18114;SDS011;9184;54.390;18.620;2022-09-29T01:12:25;12.95;;;10.98;;
18114;SDS011;9184;54.390;18.620;2022-09-29T01:12:56;21.48;;;11.38;;
18114;SDS011;9184;54.390;18.620;2022-09-29T01:13:27;15.93;;;11.50;;
18114;SDS011;9184;54.390;18.620;2022-09-29T01:13:59;12.40;;;11.05;;
18114;SDS011;9184;54.390;18.620;2022-09-29T01:14:32;13.30;;;11.60;;
18114;SDS011;9184;54.390;18.620;2022-09-29T01:15:04;14.27;;;11.45;;
18114;SDS011;9184;54.390;18.620;2022-09-29T01:15:36;13.13;;;11.48;;
18114;SDS011;9184;54.390;18.620;2022-09-29T01:16:07;12.52;;;10.85;;
18114;SDS011;9184;54.390;18.620;2022-09-29T01:16:38;13.68;;;11.52;;
18114;SDS011;9184;54.390;18.620;2022-09-29T01:17:08;14.27;;;11.65;;
18114;SDS011;9184;54.390;18.620;2022-09-29T01:17:40;13.88;;;10.90;;
18114;SDS011;9184;54.390;18.620;2022-09-29T01:18:10;14.10;;;11.38;;
18114;SDS011;9184;54.390;18.620;2022-09-29T01:18:41;12.68;;;11.35;;
18114;SDS011;9184;54.390;18.620;2022-09-29T01:19:13;14.40;;;12.35;;
18114;SDS011;9184;54.390;18.620;2022-09-29T01:19:46;15.25;;;11.95;;
18114;SDS011;9184;54.390;18.620;2022-09-29T01:20:20;12.65;;;10.23;;
18114;SDS011;9184;54.390;18.620;2022-09-29T01:20:54;12.23;;;10.40;;
18114;SDS011;9184;54.390;18.620;2022-09-29T01:21:28;13.68;;;10.90;;
18114;SDS011;9184;54.390;18.620;2022-09-29T01:22:01;14.52;;;11.98;;
18114;SDS011;9184;54.390;18.620;2022-09-29T01:23:42;12.57;;;10.80;;
18114;SDS011;9184;54.390;18.620;2022-09-29T01:24:23;11.85;;;10.20;;
18114;SDS011;9184;54.390;18.620;2022-09-29T01:25:02;13.80;;;11.75;;
18114;SDS011;9184;54.390;18.620;2022-09-29T01:25:43;14.85;;;11.60;;
18114;SDS011;9184;54.390;18.620;2022-09-29T01:26:25;14.48;;;11.38;;
18114;SDS011;9184;54.390;18.620;2022-09-29T01:27:02;13.80;;;10.68;;
18114;SDS011;9184;54.390;18.620;2022-09-29T01:27:48;12.80;;;10.40;;
18114;SDS011;9184;54.390;18.620;2022-09-29T01:30:05;12.60;;;10.68;;
18114;SDS011;9184;54.390;18.620;2022-09-29T01:30:43;12.45;;;11.13;;
18114;SDS011;9184;54.390;18.620;2022-09-29T01:31:17;14.23;;;10.73;;
18114;SDS011;9184;54.390;18.620;2022-09-29T01:31:55;14.38;;;11.13;;
18114;SDS011;9184;54.390;18.620;2022-09-29T01:32:28;14.52;;;11.48;;
18114;SDS011;9184;54.390;18.620;2022-09-29T01:33:14;13.60;;;11.00;;
18114;SDS011;9184;54.390;18.620;2022-09-29T01:33:48;12.68;;;10.98;;
18114;SDS011;9184;54.390;18.620;2022-09-29T01:34:21;15.05;;;12.10;;
18114;SDS011;9184;54.390;18.620;2022-09-29T01:34:56;12.50;;;11.07;;
18114;SDS011;9184;54.390;18.620;2022-09-29T01:35:32;15.13;;;11.80;;
18114;SDS011;9184;54.390;18.620;2022-09-29T01:36:08;17.02;;;11.95;;
18114;SDS011;9184;54.390;18.620;2022-09-29T01:36:43;13.38;;;11.30;;
18114;SDS011;9184;54.390;18.620;2022-09-29T01:37:19;15.52;;;11.40;;
18114;SDS011;9184;54.390;18.620;2022-09-29T01:37:57;14.35;;;11.82;;
18114;SDS011;9184;54.390;18.620;2022-09-29T01:38:36;15.10;;;12.32;;
18114;SDS011;9184;54.390;18.620;2022-09-29T01:39:13;13.60;;;11.00;;
18114;SDS011;9184;54.390;18.620;2022-09-29T01:39:48;17.25;;;11.85;;
18114;SDS011;9184;54.390;18.620;2022-09-29T01:40:23;14.25;;;11.30;;
18114;SDS011;9184;54.390;18.620;2022-09-29T01:40:57;17.35;;;11.27;;
18114;SDS011;9184;54.390;18.620;2022-09-29T01:41:32;14.63;;;11.90;;
18114;SDS011;9184;54.390;18.620;2022-09-29T01:42:06;13.23;;;11.45;;
18114;SDS011;9184;54.390;18.620;2022-09-29T01:42:39;14.13;;;11.57;;
18114;SDS011;9184;54.390;18.620;2022-09-29T01:43:12;13.40;;;11.55;;
18114;SDS011;9184;54.390;18.620;2022-09-29T01:43:45;14.57;;;12.30;;
18114;SDS011;9184;54.390;18.620;2022-09-29T01:44:20;17.45;;;12.00;;
18114;SDS011;9184;54.390;18.620;2022-09-29T01:44:53;15.88;;;12.02;;
18114;SDS011;9184;54.390;18.620;2022-09-29T01:45:25;14.93;;;12.50;;
18114;SDS011;9184;54.390;18.620;2022-09-29T01:46:00;16.50;;;12.02;;
18114;SDS011;9184;54.390;18.620;2022-09-29T01:46:33;15.90;;;12.57;;
18114;SDS011;9184;54.390;18.620;2022-09-29T01:47:07;14.63;;;12.13;;
18114;SDS011;9184;54.390;18.620;2022-09-29T01:47:39;14.43;;;11.52;;
18114;SDS011;9184;54.390;18.620;2022-09-29T01:48:12;14.63;;;12.48;;
18114;SDS011;9184;54.390;18.620;2022-09-29T01:48:47;15.90;;;12.35;;
18114;SDS011;9184;54.390;18.620;2022-09-29T01:49:18;15.02;;;12.13;;
18114;SDS011;9184;54.390;18.620;2022-09-29T01:49:52;15.77;;;12.55;;
18114;SDS011;9184;54.390;18.620;2022-09-29T01:50:26;15.57;;;12.45;;
18114;SDS011;9184;54.390;18.620;2022-09-29T01:50:59;15.02;;;11.88;;
18114;SDS011;9184;54.390;18.620;2022-09-29T01:51:39;15.20;;;11.85;;
18114;SDS011;9184;54.390;18.620;2022-09-29T01:52:12;20.23;;;12.05;;
18114;SDS011;9184;54.390;18.620;2022-09-29T01:52:44;14.43;;;11.30;;
18114;SDS011;9184;54.390;18.620;2022-09-29T01:53:17;13.90;;;11.40;;
18114;SDS011;9184;54.390;18.620;2022-09-29T01:53:51;14.23;;;11.35;;
18114;SDS011;9184;54.390;18.620;2022-09-29T01:54:24;14.68;;;12.27;;
18114;SDS011;9184;54.390;18.620;2022-09-29T01:54:58;13.07;;;11.48;;
18114;SDS011;9184;54.390;18.620;2022-09-29T01:55:31;13.88;;;11.70;;
18114;SDS011;9184;54.390;18.620;2022-09-29T01:56:02;16.98;;;12.48;;
18114;SDS011;9184;54.390;18.620;2022-09-29T01:56:35;16.83;;;13.38;;
18114;SDS011;9184;54.390;18.620;2022-09-29T01:57:07;17.52;;;11.75;;
18114;SDS011;9184;54.390;18.620;2022-09-29T01:57:44;20.58;;;11.85;;
18114;SDS011;9184;54.390;18.620;2022-09-29T01:58:16;16.23;;;12.05;;
18114;SDS011;9184;54.390;18.620;2022-09-29T01:58:51;14.85;;;11.57;;
18114;SDS011;9184;54.390;18.620;2022-09-29T01:59:23;16.15;;;11.48;;
18114;SDS011;9184;54.390;18.620;2022-09-29T01:59:55;15.13;;;11.77;;
18114;SDS011;9184;54.390;18.620;2022-09-29T02:00:27;13.20;;;11.27;;
18114;SDS011;9184;54.390;18.620;2022-09-29T02:01:03;14.05;;;11.40;;
18114;SDS011;9184;54.390;18.620;2022-09-29T02:01:36;14.60;;;11.90;;
18114;SDS011;9184;54.390;18.620;2022-09-29T02:02:09;13.93;;;11.07;;
18114;SDS011;9184;54.390;18.620;2022-09-29T02:02:42;14.50;;;11.95;;
18114;SDS011;9184;54.390;18.620;2022-09-29T02:03:15;14.05;;;12.02;;
18114;SDS011;9184;54.390;18.620;2022-09-29T02:03:48;13.52;;;11.07;;
18114;SDS011;9184;54.390;18.620;2022-09-29T02:04:21;13.68;;;11.07;;
18114;SDS011;9184;54.390;18.620;2022-09-29T02:04:53;27.90;;;11.35;;
18114;SDS011;9184;54.390;18.620;2022-09-29T02:05:30;14.38;;;11.95;;
18114;SDS011;9184;54.390;18.620;2022-09-29T02:06:03;15.02;;;11.65;;
18114;SDS011;9184;54.390;18.620;2022-09-29T02:06:36;13.60;;;11.30;;
18114;SDS011;9184;54.390;18.620;2022-09-29T02:07:11;13.50;;;11.25;;
18114;SDS011;9184;54.390;18.620;2022-09-29T02:07:43;14.18;;;11.57;;
18114;SDS011;9184;54.390;18.620;2022-09-29T02:08:15;14.35;;;11.82;;
18114;SDS011;9184;54.390;18.620;2022-09-29T02:08:50;13.80;;;12.23;;
18114;SDS011;9184;54.390;18.620;2022-09-29T02:09:22;14.60;;;12.23;;
18114;SDS011;9184;54.390;18.620;2022-09-29T02:09:56;12.70;;;10.50;;
18114;SDS011;9184;54.390;18.620;2022-09-29T02:10:30;16.95;;;11.52;;
18114;SDS011;9184;54.390;18.620;2022-09-29T02:11:03;14.25;;;11.20;;
18114;SDS011;9184;54.390;18.620;2022-09-29T02:11:33;14.07;;;11.68;;
18114;SDS011;9184;54.390;18.620;2022-09-29T02:12:05;14.73;;;10.93;;
18114;SDS011;9184;54.390;18.620;2022-09-29T02:12:37;14.68;;;10.70;;
18114;SDS011;9184;54.390;18.620;2022-09-29T02:13:09;15.93;;;10.85;;
18114;SDS011;9184;54.390;18.620;2022-09-29T02:13:42;14.80;;;11.48;;
18114;SDS011;9184;54.390;18.620;2022-09-29T02:14:15;12.35;;;10.48;;
18114;SDS011;9184;54.390;18.620;2022-09-29T02:14:47;13.60;;;10.70;;
18114;SDS011;9184;54.390;18.620;2022-09-29T02:15:20;11.90;;;10.20;;
18114;SDS011;9184;54.390;18.620;2022-09-29T02:15:52;15.15;;;10.73;;
18114;SDS011;9184;54.390;18.620;2022-09-29T02:16:28;15.73;;;10.93;;
18114;SDS011;9184;54.390;18.620;2022-09-29T02:17:01;12.40;;;10.55;;
18114;SDS011;9184;54.390;18.620;2022-09-29T02:17:33;13.57;;;9.80;;
18114;SDS011;9184;54.390;18.620;2022-09-29T02:18:06;15.48;;;10.95;;
18114;SDS011;9184;54.390;18.620;2022-09-29T02:18:41;12.82;;;10.05;;
18114;SDS011;9184;54.390;18.620;2022-09-29T02:19:13;14.48;;;10.68;;
18114;SDS011;9184;54.390;18.620;2022-09-29T02:19:45;14.10;;;10.95;;
18114;SDS011;9184;54.390;18.620;2022-09-29T02:20:16;12.45;;;10.35;;
18114;SDS011;9184;54.390;18.620;2022-09-29T02:20:48;12.63;;;10.55;;
18114;SDS011;9184;54.390;18.620;2022-09-29T02:21:20;11.88;;;10.35;;
18114;SDS011;9184;54.390;18.620;2022-09-29T02:21:51;12.57;;;10.75;;
18114;SDS011;9184;54.390;18.620;2022-09-29T02:22:23;12.15;;;10.48;;
18114;SDS011;9184;54.390;18.620;2022-09-29T02:22:54;12.20;;;10.90;;
18114;SDS011;9184;54.390;18.620;2022-09-29T02:23:26;14.65;;;10.68;;
18114;SDS011;9184;54.390;18.620;2022-09-29T02:23:56;10.70;;;9.60;;
18114;SDS011;9184;54.390;18.620;2022-09-29T02:24:27;12.85;;;10.65;;
18114;SDS011;9184;54.390;18.620;2022-09-29T02:24:58;13.23;;;10.40;;
18114;SDS011;9184;54.390;18.620;2022-09-29T02:25:30;13.48;;;10.48;;
18114;SDS011;9184;54.390;18.620;2022-09-29T02:26:04;14.15;;;10.07;;
18114;SDS011;9184;54.390;18.620;2022-09-29T02:26:35;11.27;;;9.55;;
18114;SDS011;9184;54.390;18.620;2022-09-29T02:27:06;11.13;;;9.98;;
18114;SDS011;9184;54.390;18.620;2022-09-29T02:27:37;11.38;;;10.27;;
18114;SDS011;9184;54.390;18.620;2022-09-29T02:28:09;12.65;;;9.85;;
18114;SDS011;9184;54.390;18.620;2022-09-29T02:28:39;11.13;;;9.95;;
18114;SDS011;9184;54.390;18.620;2022-09-29T02:29:11;11.90;;;10.65;;
18114;SDS011;9184;54.390;18.620;2022-09-29T02:29:42;12.23;;;9.52;;
18114;SDS011;9184;54.390;18.620;2022-09-29T02:30:13;10.93;;;9.82;;
18114;SDS011;9184;54.390;18.620;2022-09-29T02:30:44;9.88;;;8.88;;
18114;SDS011;9184;54.390;18.620;2022-09-29T02:31:15;13.57;;;9.48;;
18114;SDS011;9184;54.390;18.620;2022-09-29T02:31:47;13.23;;;10.45;;
18114;SDS011;9184;54.390;18.620;2022-09-29T02:32:18;11.43;;;10.23;;
18114;SDS011;9184;54.390;18.620;2022-09-29T02:32:49;11.55;;;9.38;;
18114;SDS011;9184;54.390;18.620;2022-09-29T02:33:21;15.73;;;10.30;;
18114;SDS011;9184;54.390;18.620;2022-09-29T02:33:52;11.80;;;10.27;;
18114;SDS011;9184;54.390;18.620;2022-09-29T02:34:22;10.35;;;9.13;;
18114;SDS011;9184;54.390;18.620;2022-09-29T02:34:54;13.15;;;10.43;;
18114;SDS011;9184;54.390;18.620;2022-09-29T02:35:25;11.57;;;10.38;;
18114;SDS011;9184;54.390;18.620;2022-09-29T02:35:59;12.38;;;10.18;;
18114;SDS011;9184;54.390;18.620;2022-09-29T02:36:33;11.25;;;9.70;;
18114;SDS011;9184;54.390;18.620;2022-09-29T02:37:15;12.35;;;9.57;;
18114;SDS011;9184;54.390;18.620;2022-09-29T02:37:55;12.50;;;9.63;;
18114;SDS011;9184;54.390;18.620;2022-09-29T02:38:33;10.80;;;9.70;;
18114;SDS011;9184;54.390;18.620;2022-09-29T02:39:07;10.25;;;9.23;;
18114;SDS011;9184;54.390;18.620;2022-09-29T02:39:42;12.45;;;9.73;;
18114;SDS011;9184;54.390;18.620;2022-09-29T02:40:15;11.68;;;10.40;;
18114;SDS011;9184;54.390;18.620;2022-09-29T02:40:52;11.23;;;9.85;;
18114;SDS011;9184;54.390;18.620;2022-09-29T02:41:29;12.50;;;9.07;;
18114;SDS011;9184;54.390;18.620;2022-09-29T02:42:06;13.35;;;9.82;;
18114;SDS011;9184;54.390;18.620;2022-09-29T02:42:39;11.45;;;9.57;;
18114;SDS011;9184;54.390;18.620;2022-09-29T02:43:20;10.93;;;9.43;;
18114;SDS011;9184;54.390;18.620;2022-09-29T02:44:00;10.75;;;9.05;;
18114;SDS011;9184;54.390;18.620;2022-09-29T02:44:38;11.45;;;9.27;;
18114;SDS011;9184;54.390;18.620;2022-09-29T02:45:17;10.52;;;9.43;;
18114;SDS011;9184;54.390;18.620;2022-09-29T02:45:54;11.10;;;9.98;;
18114;SDS011;9184;54.390;18.620;2022-09-29T02:46:33;11.77;;;9.65;;
18114;SDS011;9184;54.390;18.620;2022-09-29T02:47:15;12.35;;;9.75;;
18114;SDS011;9184;54.390;18.620;2022-09-29T02:47:56;11.65;;;10.00;;
18114;SDS011;9184;54.390;18.620;2022-09-29T02:49:31;10.98;;;9.75;;
18114;SDS011;9184;54.390;18.620;2022-09-29T02:50:18;11.35;;;10.15;;
18114;SDS011;9184;54.390;18.620;2022-09-29T02:50:55;14.38;;;9.77;;
18114;SDS011;9184;54.390;18.620;2022-09-29T02:51:31;13.35;;;10.30;;
18114;SDS011;9184;54.390;18.620;2022-09-29T02:52:07;11.50;;;10.30;;
18114;SDS011;9184;54.390;18.620;2022-09-29T02:52:43;10.45;;;9.35;;
18114;SDS011;9184;54.390;18.620;2022-09-29T02:53:18;11.82;;;9.88;;
18114;SDS011;9184;54.390;18.620;2022-09-29T02:53:54;12.13;;;8.90;;
18114;SDS011;9184;54.390;18.620;2022-09-29T02:54:32;12.50;;;10.05;;
18114;SDS011;9184;54.390;18.620;2022-09-29T02:55:10;11.32;;;10.10;;
18114;SDS011;9184;54.390;18.620;2022-09-29T02:55:44;11.20;;;9.18;;
18114;SDS011;9184;54.390;18.620;2022-09-29T02:56:22;12.50;;;9.68;;
18114;SDS011;9184;54.390;18.620;2022-09-29T02:56:56;11.07;;;9.23;;
18114;SDS011;9184;54.390;18.620;2022-09-29T02:57:37;11.70;;;9.07;;
18114;SDS011;9184;54.390;18.620;2022-09-29T02:58:12;10.68;;;9.48;;
18114;SDS011;9184;54.390;18.620;2022-09-29T02:58:46;9.98;;;8.90;;
18114;SDS011;9184;54.390;18.620;2022-09-29T02:59:23;11.23;;;10.02;;
18114;SDS011;9184;54.390;18.620;2022-09-29T02:59:57;12.40;;;10.23;;
18114;SDS011;9184;54.390;18.620;2022-09-29T03:00:35;13.52;;;9.75;;
18114;SDS011;9184;54.390;18.620;2022-09-29T03:01:06;10.40;;;8.85;;
18114;SDS011;9184;54.390;18.620;2022-09-29T03:01:45;11.07;;;9.95;;
18114;SDS011;9184;54.390;18.620;2022-09-29T03:02:23;10.57;;;9.45;;
18114;SDS011;9184;54.390;18.620;2022-09-29T03:02:54;11.77;;;9.98;;
18114;SDS011;9184;54.390;18.620;2022-09-29T03:03:25;10.75;;;9.45;;
18114;SDS011;9184;54.390;18.620;2022-09-29T03:03:55;12.23;;;9.82;;
18114;SDS011;9184;54.390;18.620;2022-09-29T03:04:26;14.20;;;10.10;;
18114;SDS011;9184;54.390;18.620;2022-09-29T03:04:57;13.05;;;9.93;;
18114;SDS011;9184;54.390;18.620;2022-09-29T03:05:27;13.02;;;11.02;;
18114;SDS011;9184;54.390;18.620;2022-09-29T03:06:00;13.40;;;10.52;;
18114;SDS011;9184;54.390;18.620;2022-09-29T03:06:30;12.00;;;10.27;;
18114;SDS011;9184;54.390;18.620;2022-09-29T03:07:01;11.30;;;10.20;;
18114;SDS011;9184;54.390;18.620;2022-09-29T03:07:32;11.15;;;9.57;;
18114;SDS011;9184;54.390;18.620;2022-09-29T03:08:03;14.15;;;10.43;;
18114;SDS011;9184;54.390;18.620;2022-09-29T03:08:34;11.43;;;10.30;;
18114;SDS011;9184;54.390;18.620;2022-09-29T03:09:05;11.55;;;10.35;;
18114;SDS011;9184;54.390;18.620;2022-09-29T03:09:36;14.10;;;10.70;;
18114;SDS011;9184;54.390;18.620;2022-09-29T03:10:07;12.95;;;9.82;;
18114;SDS011;9184;54.390;18.620;2022-09-29T03:10:38;12.95;;;10.15;;
18114;SDS011;9184;54.390;18.620;2022-09-29T03:11:09;12.27;;;10.18;;
18114;SDS011;9184;54.390;18.620;2022-09-29T03:11:40;14.13;;;10.63;;
18114;SDS011;9184;54.390;18.620;2022-09-29T03:12:10;13.93;;;9.85;;
18114;SDS011;9184;54.390;18.620;2022-09-29T03:12:42;13.38;;;9.55;;
18114;SDS011;9184;54.390;18.620;2022-09-29T03:13:12;11.48;;;10.07;;
18114;SDS011;9184;54.390;18.620;2022-09-29T03:13:43;14.05;;;10.25;;
18114;SDS011;9184;54.390;18.620;2022-09-29T03:14:14;13.05;;;10.70;;
18114;SDS011;9184;54.390;18.620;2022-09-29T03:14:45;10.93;;;9.55;;
18114;SDS011;9184;54.390;18.620;2022-09-29T03:15:15;10.68;;;9.18;;
18114;SDS011;9184;54.390;18.620;2022-09-29T03:15:48;21.42;;;9.77;;
18114;SDS011;9184;54.390;18.620;2022-09-29T03:16:18;10.90;;;9.02;;
18114;SDS011;9184;54.390;18.620;2022-09-29T03:16:48;13.18;;;10.07;;
18114;SDS011;9184;54.390;18.620;2022-09-29T03:17:20;10.82;;;9.68;;
18114;SDS011;9184;54.390;18.620;2022-09-29T03:17:54;13.63;;;9.95;;
18114;SDS011;9184;54.390;18.620;2022-09-29T03:18:26;10.63;;;9.55;;